.
WxDataArchive / Data Records for 2009-05-04
2009-05-03 May 2009 2009-05-05

Data Records for Monday, 04 May 2009

Time	Temp	Chill	HIndex	Humid	Dewpt	 Wind 	HiWind	WindDir	Rain 	Barom 
-----	----	-----	------	-----	-----	------	------	-------	-----	----- 
00:00	51.0	51.0	51.0	61	38.0	0	0	---	0.00	29.949 
00:05	51.0	51.0	51.0	61	38.0	0	0	---	0.00	29.949 
00:10	51.0	51.0	51.0	61	38.0	0	0	---	0.00	29.949 
00:15	50.8	50.8	50.8	61	37.8	0	0	---	0.00	29.948 
00:20	50.7	50.7	50.7	62	38.2	0	0	---	0.00	29.948 
00:25	50.4	50.4	50.4	60	37.0	0	0	---	0.00	29.948 
00:30	50.2	50.2	50.2	62	37.7	0	0	---	0.00	29.945 
00:35	50.1	50.1	50.1	63	38.0	0	0	---	0.00	29.945 
00:40	50.1	50.1	50.1	63	38.0	0	0	---	0.00	29.945 
00:45	50.1	50.1	50.1	63	38.0	0	0	---	0.00	29.944 
00:50	50.1	50.1	50.1	63	38.0	0	0	---	0.00	29.944 
00:55	50.1	50.1	50.1	63	38.0	0	0	---	0.00	29.944 
01:00	50.2	50.2	50.2	63	38.1	0	0	---	0.00	29.942 
01:05	50.1	50.1	50.1	62	37.6	0	0	---	0.00	29.942 
01:10	50.1	50.1	50.1	62	37.6	0	0	---	0.00	29.942 
01:15	49.9	49.9	49.9	64	38.2	0	0	---	0.00	29.941 
01:20	49.9	49.9	49.9	64	38.2	0	0	---	0.00	29.941 
01:25	49.8	49.8	49.8	65	38.5	0	0	---	0.00	29.941 
01:30	49.8	49.8	49.8	65	38.5	0	0	---	0.00	29.942 
01:35	49.6	49.6	49.6	65	38.3	0	0	---	0.00	29.942 
01:40	49.6	49.6	49.6	65	38.3	0	0	---	0.00	29.942 
01:45	49.5	49.5	49.5	65	38.2	0	0	---	0.00	29.940 
01:50	49.5	49.5	49.5	64	37.8	0	0	---	0.00	29.940 
01:55	49.5	49.5	49.5	62	37.0	0	0	---	0.00	29.940 
02:00	49.6	49.6	49.6	63	37.5	0	0	---	0.00	29.941 
02:05	49.6	49.6	49.6	63	37.5	0	0	---	0.00	29.941 
02:10	49.6	49.6	49.6	62	37.1	0	0	---	0.00	29.941 
02:15	49.6	49.6	49.6	63	37.5	0	0	---	0.00	29.941 
02:20	49.5	49.5	49.5	62	37.0	0	0	---	0.00	29.941 
02:25	49.4	49.4	49.4	62	36.9	0	0	---	0.00	29.941 
02:30	49.4	49.4	49.4	61	36.5	0	0	---	0.00	29.944 
02:35	49.4	49.4	49.4	60	36.1	0	0	---	0.00	29.944 
02:40	49.4	49.4	49.4	60	36.1	0	0	---	0.00	29.944 
02:45	49.2	49.2	49.2	59	35.5	0	0	---	0.00	29.944 
02:50	49.2	49.2	49.2	59	35.5	0	0	---	0.00	29.944 
02:55	49.2	49.2	49.2	59	35.5	0	0	---	0.00	29.944 
03:00	49.2	49.2	49.2	58	35.1	0	0	---	0.00	29.945 
03:05	49.4	49.4	49.4	58	35.2	0	0	---	0.00	29.945 
03:10	49.4	49.4	49.4	58	35.2	0	0	---	0.00	29.945 
03:15	49.4	49.4	49.4	58	35.2	0	0	---	0.00	29.948 
03:20	49.4	49.4	49.4	58	35.2	0	0	---	0.00	29.948 
03:25	49.4	49.4	49.4	60	36.1	0	0	---	0.00	29.948 
03:30	49.2	49.2	49.2	60	35.9	0	0	---	0.00	29.954 
03:35	49.1	49.1	49.1	59	35.4	0	0	---	0.00	29.954 
03:40	49.1	49.1	49.1	59	35.4	0	0	---	0.00	29.954 
03:45	48.9	48.9	48.9	59	35.2	0	0	---	0.00	29.957 
03:50	48.8	48.8	48.8	60	35.5	0	0	---	0.00	29.957 
03:55	48.8	48.8	48.8	60	35.5	0	0	---	0.00	29.957 
04:00	48.6	48.6	48.6	60	35.3	0	0	---	0.00	29.959 
04:05	48.6	48.6	48.6	60	35.3	0	0	---	0.00	29.959 
04:10	48.6	48.6	48.6	59	34.9	0	0	---	0.00	29.959 
04:15	48.6	48.6	48.6	59	34.9	0	0	---	0.00	29.962 
04:20	48.5	48.5	48.5	59	34.8	0	0	---	0.00	29.962 
04:25	48.5	48.5	48.5	59	34.8	0	0	---	0.00	29.962 
04:30	48.3	48.3	48.3	59	34.6	0	0	---	0.00	29.962 
04:35	48.3	48.3	48.3	59	34.6	0	0	---	0.00	29.962 
04:40	48.2	48.2	48.2	59	34.6	0	1	225	0.00	29.962 
04:45	48.3	48.3	48.3	59	34.6	0	1	---	0.00	29.963 
04:50	48.3	48.3	48.3	59	34.6	0	0	---	0.00	29.963 
04:55	48.2	48.2	48.2	59	34.6	0	0	---	0.00	29.963 
05:00	48.2	48.2	48.2	59	34.6	0	0	---	0.00	29.964 
05:05	48.2	48.2	48.2	60	35.0	0	0	---	0.00	29.964 
05:10	48.0	48.0	48.0	60	34.8	0	0	---	0.00	29.964 
05:15	48.0	48.0	48.0	60	34.8	0	0	---	0.00	29.969 
05:20	48.0	48.0	48.0	60	34.8	0	0	---	0.00	29.969 
05:25	47.9	47.9	47.9	61	35.1	0	0	---	0.00	29.969 
05:30	47.9	47.9	47.9	61	35.1	0	0	---	0.00	29.979 
05:35	47.7	47.7	47.7	61	34.9	0	0	---	0.00	29.979 
05:40	47.6	47.6	47.6	61	34.8	0	0	---	0.00	29.979 
05:45	47.6	47.6	47.6	61	34.8	0	0	---	0.00	29.980 
05:50	47.4	47.4	47.4	62	35.0	0	0	---	0.00	29.980 
05:55	47.4	47.4	47.4	62	35.0	0	0	---	0.00	29.980 
06:00	47.3	47.3	47.3	62	34.9	0	0	---	0.00	29.981 
06:05	47.3	47.3	47.3	62	34.9	0	0	---	0.00	29.981 
06:10	47.3	47.3	47.3	62	34.9	0	1	225	0.00	29.981 
06:15	47.1	47.1	47.1	63	35.2	0	0	---	0.00	29.986 
06:20	47.1	47.1	47.1	63	35.2	0	0	---	0.00	29.986 
06:25	47.1	47.1	47.1	63	35.2	0	0	---	0.00	29.986 
06:30	47.1	47.1	47.1	63	35.2	0	0	---	0.00	29.994 
06:35	47.1	47.1	47.1	63	35.2	0	0	---	0.00	29.994 
06:40	47.1	47.1	47.1	63	35.2	0	0	---	0.00	29.994 
06:45	47.1	47.1	47.1	63	35.2	0	0	---	0.00	29.997 
06:50	47.1	47.1	47.1	64	35.6	0	1	225	0.00	29.997 
06:55	47.1	47.1	47.1	64	35.6	0	0	---	0.00	29.997 
07:00	47.1	47.1	47.1	64	35.6	0	1	225	0.00	30.005 
07:05	47.1	47.1	47.1	64	35.6	0	0	---	0.00	30.005 
07:10	47.3	47.3	47.3	64	35.7	0	1	225	0.00	30.005 
07:15	47.4	47.4	47.4	64	35.8	0	0	---	0.00	30.012 
07:20	47.6	47.6	47.6	64	36.0	0	1	225	0.00	30.012 
07:25	47.7	47.7	47.7	63	35.7	0	1	225	0.00	30.012 
07:30	48.0	48.0	48.0	62	35.6	0	2	225	0.00	30.019 
07:35	48.5	48.5	48.5	63	36.5	0	0	---	0.00	30.019 
07:40	48.8	48.8	48.8	63	36.8	0	0	---	0.00	30.019 
07:45	48.9	48.9	48.9	63	36.9	0	0	---	0.00	30.028 
07:50	49.4	49.4	49.4	63	37.3	0	0	---	0.00	30.028 
07:55	49.9	49.9	49.9	62	37.4	0	1	225	0.00	30.028 
08:00	50.5	50.5	50.5	61	37.6	0	1	225	0.00	30.038 
08:05	51.0	51.0	51.0	61	38.0	0	1	225	0.00	30.038 
08:10	51.4	51.4	51.4	59	37.6	0	2	225	0.00	30.038 
08:15	51.9	51.9	51.9	59	38.0	0	2	0	0.00	30.046 
08:20	52.5	52.5	52.5	58	38.2	0	1	0	0.00	30.046 
08:25	53.2	53.2	53.2	57	38.4	0	2	0	0.00	30.046 
08:30	53.8	53.8	53.8	58	39.4	0	2	0	0.00	30.050 
08:35	54.5	54.5	54.5	56	39.1	0	2	22	0.00	30.050 
08:40	55.1	55.1	55.1	55	39.2	0	1	22	0.00	30.050 
08:45	55.6	55.6	55.6	53	38.7	0	3	22	0.00	30.055 
08:50	55.7	55.7	55.7	55	39.8	0	2	22	0.00	30.055 
08:55	55.9	55.9	55.9	53	39.0	1	5	68	0.00	30.055 
09:00	56.2	56.2	56.2	53	39.3	1	4	68	0.00	30.058 
09:05	56.3	56.3	56.3	54	39.9	1	5	68	0.00	30.058 
09:10	56.5	56.5	56.5	52	39.1	0	2	90	0.00	30.058 
09:15	57.2	57.2	57.2	54	40.7	0	3	90	0.00	30.061 
09:20	57.6	57.6	57.6	51	39.6	1	4	90	0.00	30.061 
09:25	58.0	58.0	58.0	51	40.0	1	3	90	0.00	30.061 
09:30	58.1	58.1	58.1	50	39.6	1	3	90	0.00	30.065 
09:35	58.4	58.4	58.4	51	40.3	1	5	112	0.00	30.065 
09:40	58.7	58.7	58.7	50	40.1	1	4	112	0.00	30.065 
09:45	59.2	59.2	59.2	49	40.0	2	4	45	0.00	30.061 
09:50	59.5	59.5	59.5	48	39.8	1	4	90	0.00	30.061 
09:55	59.9	59.9	59.9	48	40.2	1	3	112	0.00	30.061 
10:00	60.2	60.2	60.2	46	39.3	2	5	90	0.00	30.061 
10:05	60.5	60.5	60.5	46	39.6	1	4	112	0.00	30.061 
10:10	61.0	61.0	61.0	46	40.1	2	4	112	0.00	30.061 
10:15	61.5	61.5	61.5	44	39.4	1	6	90	0.00	30.063 
10:20	61.8	61.8	61.8	45	40.2	1	5	112	0.00	30.063 
10:25	61.8	61.8	61.8	44	39.7	2	7	90	0.00	30.063 
10:30	62.0	62.0	62.0	45	40.4	2	6	90	0.00	30.068 
10:35	62.4	62.4	62.4	43	39.6	2	4	90	0.00	30.068 
10:40	62.7	62.7	62.7	45	41.0	2	4	90	0.00	30.068 
10:45	62.6	62.6	62.6	42	39.2	2	7	112	0.00	30.072 
10:50	62.9	62.9	62.9	42	39.5	1	4	112	0.00	30.072 
10:55	63.5	63.5	63.5	43	40.6	1	4	112	0.00	30.072 
11:00	64.2	64.2	64.2	41	40.0	1	5	112	0.00	30.071 
11:05	64.3	64.3	64.3	40	39.5	2	6	112	0.00	30.071 
11:10	64.5	64.5	64.5	45	42.7	1	4	135	0.00	30.071 
11:15	65.2	65.2	65.2	40	40.3	1	5	112	0.00	30.072 
11:20	65.5	65.5	65.5	39	39.9	1	5	112	0.00	30.072 
11:25	65.5	65.5	65.5	38	39.2	2	6	90	0.00	30.072 
11:30	65.6	65.6	65.6	40	40.6	1	3	90	0.00	30.073 
11:35	66.1	66.1	66.1	40	41.1	1	3	90	0.00	30.073 
11:40	66.4	66.4	66.4	37	39.3	2	7	112	0.00	30.073 
11:45	66.6	66.6	66.6	37	39.5	2	7	90	0.00	30.074 
11:50	66.6	66.6	66.6	40	41.5	2	7	112	0.00	30.074 
11:55	66.6	66.6	66.6	37	39.5	3	6	90	0.00	30.074 
12:00	66.8	66.8	66.8	37	39.7	2	7	112	0.00	30.070 
12:05	67.3	67.3	67.3	33	37.2	1	4	90	0.00	30.070 
12:10	67.6	67.6	67.6	35	39.0	2	5	112	0.00	30.070 
12:15	67.6	67.6	67.6	32	36.7	2	5	112	0.00	30.072 
12:20	67.1	67.1	67.1	35	38.5	2	5	112	0.00	30.072 
12:25	67.6	67.6	67.6	38	41.1	1	2	90	0.00	30.072 
12:30	67.8	67.8	67.8	33	37.6	2	7	90	0.00	30.070 
12:35	67.8	67.8	67.8	31	36.1	2	6	90	0.00	30.070 
12:40	67.6	67.6	67.6	32	36.7	2	4	112	0.00	30.070 
12:45	67.1	67.1	67.1	31	35.4	2	5	112	0.00	30.072 
12:50	66.3	66.3	66.3	33	36.3	3	6	90	0.00	30.072 
12:55	66.1	66.1	66.1	32	35.4	1	3	112	0.00	30.072 
13:00	66.0	66.0	66.0	32	35.3	2	4	112	0.00	30.072 
13:05	65.8	65.8	65.8	32	35.1	1	4	112	0.00	30.072 
13:10	66.0	66.0	66.0	34	36.8	0	2	112	0.00	30.072 
13:15	66.6	66.6	66.6	36	38.8	0	3	90	0.00	30.070 
13:20	67.6	67.6	67.6	31	35.9	1	5	90	0.00	30.070 
13:25	67.6	67.6	67.6	31	35.9	3	5	90	0.00	30.070 
13:30	67.4	67.4	67.4	31	35.7	1	3	112	0.00	30.066 
13:35	67.3	67.3	67.3	33	37.2	1	4	90	0.00	30.066 
13:40	67.4	67.4	67.4	32	36.5	1	3	112	0.00	30.066 
13:45	66.9	66.9	66.9	28	32.7	1	3	112	0.00	30.069 
13:50	66.6	66.6	66.6	30	34.2	0	1	112	0.00	30.069 
13:55	66.6	66.6	66.6	31	35.0	0	2	112	0.00	30.069 
14:00	67.1	67.1	67.1	36	39.2	0	2	112	0.00	30.071 
14:05	67.9	67.9	67.9	33	37.7	0	1	112	0.00	30.071 
14:10	68.6	68.6	68.6	32	37.6	1	5	90	0.00	30.071 
14:15	68.9	68.9	68.9	34	39.4	2	5	112	0.00	30.065 
14:20	69.1	69.1	69.1	28	34.6	2	7	135	0.00	30.065 
14:25	69.3	69.3	69.3	31	37.4	1	3	180	0.00	30.065 
14:30	69.3	69.3	69.3	31	37.4	2	5	112	0.00	30.069 
14:35	69.3	69.3	69.3	28	34.8	1	5	112	0.00	30.069 
14:40	69.3	69.3	69.3	32	38.2	2	6	90	0.00	30.069 
14:45	69.4	69.4	69.4	30	36.6	1	4	45	0.00	30.068 
14:50	69.4	69.4	69.4	29	35.8	2	5	112	0.00	30.068 
14:55	69.8	69.8	69.8	30	37.0	1	9	112	0.00	30.068 
15:00	69.8	69.8	69.8	30	37.0	1	9	90	0.00	30.066 
15:05	69.4	69.4	69.4	28	34.9	3	7	90	0.00	30.066 
15:10	69.3	69.3	69.3	28	34.8	2	5	112	0.00	30.066 
15:15	69.3	69.3	69.3	28	34.8	1	4	112	0.00	30.062 
15:20	69.4	69.4	69.4	29	35.8	1	3	112	0.00	30.062 
15:25	69.8	69.8	69.8	27	34.3	1	3	135	0.00	30.062 
15:30	70.3	70.3	70.3	28	35.6	1	5	90	0.00	30.056 
15:35	69.8	69.8	69.8	30	37.0	3	7	90	0.00	30.056 
15:40	69.6	69.6	69.6	30	36.8	1	6	112	0.00	30.056 
15:45	69.6	69.6	69.6	28	35.0	2	5	90	0.00	30.055 
15:50	69.6	69.6	69.6	28	35.0	2	6	90	0.00	30.055 
15:55	69.6	69.6	69.6	28	35.0	1	4	112	0.00	30.055 
16:00	69.6	69.6	69.6	27	34.1	2	6	112	0.00	30.053 
16:05	69.4	69.4	69.4	27	34.0	2	5	112	0.00	30.053 
16:10	69.4	69.4	69.4	28	34.9	1	4	90	0.00	30.053 
16:15	69.8	69.8	69.8	28	35.2	1	4	112	0.00	30.050 
16:20	69.9	69.9	69.9	32	38.7	1	5	112	0.00	30.050 
16:25	69.9	69.9	69.9	28	35.3	1	4	112	0.00	30.050 
16:30	69.8	69.8	69.8	28	35.2	2	6	112	0.00	30.049 
16:35	69.8	69.8	69.8	29	36.1	2	6	90	0.00	30.049 
16:40	69.4	69.4	69.4	30	36.6	2	6	90	0.00	30.049 
16:45	69.3	69.3	69.3	30	36.5	0	3	90	0.00	30.049 
16:50	69.4	69.4	69.4	33	39.0	0	2	90	0.00	30.049 
16:55	69.4	69.4	69.4	32	38.3	2	5	90	0.00	30.049 
17:00	69.4	69.4	69.4	29	35.8	0	2	90	0.00	30.048 
17:05	69.1	69.1	69.1	32	38.0	1	5	90	0.00	30.048 
17:10	68.3	68.3	68.3	33	38.1	3	5	90	0.00	30.048 
17:15	67.8	67.8	67.8	32	36.9	2	5	90	0.00	30.053 
17:20	67.6	67.6	67.6	35	39.0	1	4	112	0.00	30.053 
17:25	67.4	67.4	67.4	36	39.5	3	11	90	0.00	30.053 
17:30	66.8	66.8	66.8	37	39.7	4	8	112	0.00	30.056 
17:35	66.3	66.3	66.3	39	40.6	4	9	90	0.00	30.056 
17:40	66.1	66.1	66.1	39	40.4	3	7	90	0.00	30.056 
17:45	66.1	66.1	66.1	38	39.7	3	8	112	0.00	30.057 
17:50	66.1	66.1	66.1	39	40.4	3	6	112	0.00	30.057 
17:55	66.1	66.1	66.1	41	41.7	1	4	90	0.00	30.057 
18:00	66.0	66.0	66.0	39	40.3	3	8	90	0.00	30.057 
18:05	65.8	65.8	65.8	40	40.8	3	7	112	0.00	30.057 
18:10	65.6	65.6	65.6	38	39.3	3	5	112	0.00	30.057 
18:15	65.5	65.5	65.5	40	40.5	2	7	112	0.00	30.056 
18:20	65.3	65.3	65.3	39	39.7	4	7	90	0.00	30.056 
18:25	65.0	65.0	65.0	37	38.1	3	7	112	0.00	30.056 
18:30	64.8	64.8	64.8	38	38.6	3	6	90	0.00	30.059 
18:35	64.7	64.7	64.7	36	37.1	4	12	112	0.00	30.059 
18:40	64.5	64.5	64.5	37	37.6	3	12	112	0.00	30.059 
18:45	64.3	64.3	64.3	38	38.1	3	7	112	0.00	30.060 
18:50	64.2	64.2	64.2	36	36.7	3	6	112	0.00	30.060 
18:55	64.0	64.0	64.0	38	37.9	3	11	112	0.00	30.060 
19:00	63.9	63.9	63.9	38	37.8	3	10	112	0.00	30.060 
19:05	63.7	63.7	63.7	37	36.9	3	11	90	0.00	30.060 
19:10	63.5	63.5	63.5	37	36.8	3	6	90	0.00	30.060 
19:15	63.4	63.4	63.4	38	37.3	3	5	112	0.00	30.057 
19:20	63.2	63.2	63.2	39	37.8	3	10	112	0.00	30.057 
19:25	63.1	63.1	63.1	37	36.4	3	9	112	0.00	30.057 
19:30	62.9	62.9	62.9	38	36.9	3	6	112	0.00	30.058 
19:35	62.7	62.7	62.7	37	36.0	4	9	112	0.00	30.058 
19:40	62.4	62.4	62.4	37	35.8	2	9	112	0.00	30.058 
19:45	62.3	62.3	62.3	39	37.0	2	5	90	0.00	30.060 
19:50	62.1	62.1	62.1	39	36.8	3	7	112	0.00	30.060 
19:55	62.0	62.0	62.0	40	37.4	2	5	68	0.00	30.060 
20:00	61.6	61.6	61.6	38	35.7	3	6	112	0.00	30.059 
20:05	61.5	61.5	61.5	39	36.3	2	7	112	0.00	30.059 
20:10	61.3	61.3	61.3	41	37.4	1	3	90	0.00	30.059 
20:15	61.0	61.0	61.0	42	37.7	1	4	90	0.00	30.056 
20:20	60.9	60.9	60.9	42	37.7	2	7	90	0.00	30.056 
20:25	60.7	60.7	60.7	43	38.1	2	6	112	0.00	30.056 
20:30	60.4	60.4	60.4	44	38.4	1	4	112	0.00	30.054 
20:35	60.2	60.2	60.2	42	37.0	2	7	112	0.00	30.054 
20:40	59.9	59.9	59.9	41	36.1	3	6	112	0.00	30.054 
20:45	59.8	59.8	59.8	41	36.1	2	6	112	0.00	30.053 
20:50	59.6	59.6	59.6	42	36.5	2	5	112	0.00	30.053 
20:55	59.5	59.5	59.5	42	36.4	2	11	112	0.00	30.053 
21:00	59.3	59.3	59.3	43	36.8	1	3	90	0.00	30.054 
21:05	59.2	59.2	59.2	45	37.9	1	6	112	0.00	30.054 
21:10	59.0	59.0	59.0	46	38.2	2	5	90	0.00	30.054 
21:15	58.9	58.9	58.9	45	37.6	2	6	112	0.00	30.054 
21:20	58.7	58.7	58.7	45	37.4	2	5	90	0.00	30.054 
21:25	58.6	58.6	58.6	45	37.3	2	5	90	0.00	30.054 
21:30	58.4	58.4	58.4	46	37.7	1	3	112	0.00	30.062 
21:35	58.1	58.1	58.1	46	37.4	1	2	90	0.00	30.062 
21:40	57.8	57.8	57.8	46	37.2	1	2	90	0.00	30.062 
21:45	57.6	57.6	57.6	48	38.1	1	3	90	0.00	30.070 
21:50	57.3	57.3	57.3	49	38.3	0	1	90	0.00	30.070 
21:55	57.0	57.0	57.0	49	38.0	0	1	90	0.00	30.070 
22:00	56.7	56.7	56.7	50	38.3	0	1	90	0.00	30.078 
22:05	56.5	56.5	56.5	50	38.1	0	0	---	0.00	30.078 
22:10	56.0	56.0	56.0	50	37.6	0	2	90	0.00	30.078 
22:15	55.9	55.9	55.9	48	36.5	0	2	90	0.00	30.082 
22:20	55.9	55.9	55.9	49	37.0	0	1	90	0.00	30.082 
22:25	56.0	56.0	56.0	48	36.6	0	1	90	0.00	30.082 
22:30	56.0	56.0	56.0	48	36.6	0	2	90	0.00	30.084 
22:35	56.0	56.0	56.0	47	36.1	0	2	90	0.00	30.084 
22:40	56.0	56.0	56.0	47	36.1	0	2	90	0.00	30.084 
22:45	56.0	56.0	56.0	47	36.1	0	2	90	0.00	30.086 
22:50	55.9	55.9	55.9	49	37.0	0	2	90	0.00	30.086 
22:55	55.6	55.6	55.6	50	37.3	0	1	90	0.00	30.086 
23:00	55.1	55.1	55.1	50	36.8	0	1	90	0.00	30.086 
23:05	54.8	54.8	54.8	52	37.5	0	0	---	0.00	30.086 
23:10	54.5	54.5	54.5	52	37.2	0	0	---	0.00	30.086 
23:15	54.1	54.1	54.1	53	37.4	0	1	90	0.00	30.085 
23:20	53.9	53.9	53.9	54	37.6	0	0	---	0.00	30.085 
23:25	53.6	53.6	53.6	54	37.4	0	1	90	0.00	30.085 
23:30	53.5	53.5	53.5	54	37.3	0	0	---	0.00	30.087 
23:35	53.2	53.2	53.2	55	37.5	0	0	---	0.00	30.087 
23:40	53.1	53.1	53.1	55	37.4	0	0	---	0.00	30.087 
23:45	52.8	52.8	52.8	55	37.1	0	0	---	0.00	30.087 
23:50	52.6	52.6	52.6	56	37.4	0	0	---	0.00	30.087 
23:55	52.5	52.5	52.5	57	37.7	0	0	---	0.00	30.087 

CoCoRaHS
IN-AL-39
A2 Web Hosting
Creative Commons License
GoDaddy
search engine by freefind advanced

loaded 2018-11-13 21:59:32 • last modified 2010-11-18 10:43:29
Privacy PolicyDisclaimer
• wx.awcolley.com is powered by PmWiki v.2002016 •
• all content (unless otherwise noted) © 2018 A W Colley